createdAt,value
2023-01-08T00:00:52.880Z,-9.27
2023-01-08T00:03:59.755Z,-9.27
2023-01-08T00:07:07.127Z,-9.27
2023-01-08T00:10:13.279Z,-9.26
2023-01-08T00:13:21.191Z,-9.26
2023-01-08T00:16:29.387Z,-9.29
2023-01-08T00:19:34.494Z,-9.29
2023-01-08T00:22:40.728Z,-9.31
2023-01-08T00:25:48.015Z,-9.37
2023-01-08T00:28:53.531Z,-9.40
2023-01-08T00:32:02.153Z,-9.44
2023-01-08T00:35:08.418Z,-9.51
2023-01-08T00:38:14.824Z,-9.47
2023-01-08T00:41:21.543Z,-9.39
2023-01-08T00:44:27.448Z,-9.34
2023-01-08T00:47:33.923Z,-9.27
2023-01-08T00:50:39.838Z,-9.20
2023-01-08T00:53:48.132Z,-9.15
2023-01-08T00:56:54.789Z,-9.13
2023-01-08T01:00:00.637Z,-9.10
2023-01-08T01:03:07.613Z,-9.00
2023-01-08T01:06:17.080Z,-8.98
2023-01-08T01:09:25.966Z,-8.98
2023-01-08T01:12:31.675Z,-8.94
2023-01-08T01:15:38.704Z,-8.91
2023-01-08T01:18:37.981Z,-8.91
2023-01-08T01:21:44.381Z,-8.90
2023-01-08T01:24:50.203Z,-8.92
2023-01-08T01:27:55.923Z,-8.86
2023-01-08T01:31:10.251Z,-8.86
2023-01-08T01:34:15.398Z,-8.92
2023-01-08T01:37:21.321Z,-8.88
2023-01-08T01:40:26.482Z,-8.85
2023-01-08T01:43:53.431Z,-8.78
2023-01-08T01:46:58.907Z,-8.74
2023-01-08T01:50:22.052Z,-8.68
2023-01-08T01:53:31.301Z,-8.62
2023-01-08T01:56:36.687Z,-8.61
2023-01-08T01:59:42.046Z,-8.66
2023-01-08T02:02:48.428Z,-8.72
2023-01-08T02:06:16.565Z,-8.72
2023-01-08T02:09:51.685Z,-8.71
2023-01-08T02:13:04.835Z,-8.75
2023-01-08T02:16:14.713Z,-8.75
2023-01-08T02:19:54.759Z,-8.75
2023-01-08T02:23:46.141Z,-8.73
2023-01-08T02:26:51.653Z,-8.71
2023-01-08T02:29:57.768Z,-8.75
2023-01-08T02:33:03.878Z,-8.90
2023-01-08T02:36:32.547Z,-8.96
2023-01-08T02:40:21.964Z,-9.16
2023-01-08T02:43:34.826Z,-9.16
2023-01-08T02:46:42.604Z,-9.28
2023-01-08T02:49:49.481Z,-9.25
2023-01-08T02:53:17.026Z,-9.27
2023-01-08T02:56:25.814Z,-9.35
2023-01-08T02:59:31.697Z,-9.34
2023-01-08T03:02:41.205Z,-9.26
2023-01-08T03:05:46.807Z,-9.21
2023-01-08T03:08:57.248Z,-9.12
2023-01-08T03:12:12.270Z,-9.12
2023-01-08T03:15:22.583Z,-9.08
2023-01-08T03:18:29.690Z,-9.03
2023-01-08T03:21:36.022Z,-8.97
2023-01-08T03:24:46.015Z,-8.99
2023-01-08T03:27:54.806Z,-8.95
2023-01-08T03:31:00.648Z,-9.05
2023-01-08T03:34:06.648Z,-9.14
2023-01-08T03:37:15.004Z,-9.09
2023-01-08T03:40:34.203Z,-9.06
2023-01-08T03:43:39.192Z,-9.02
2023-01-08T03:46:46.973Z,-8.91
2023-01-08T03:49:53.708Z,-8.85
2023-01-08T03:53:01.915Z,-8.85
2023-01-08T03:56:09.616Z,-8.85
2023-01-08T03:59:14.708Z,-8.93
2023-01-08T04:02:21.108Z,-8.94
2023-01-08T04:05:27.717Z,-8.95
2023-01-08T04:08:33.657Z,-9.00
2023-01-08T04:11:38.997Z,-9.00
2023-01-08T04:14:44.256Z,-9.07
2023-01-08T04:17:50.836Z,-9.08
2023-01-08T04:21:01.515Z,-9.10
2023-01-08T04:24:08.705Z,-9.16
2023-01-08T04:27:16.414Z,-9.26
2023-01-08T04:30:22.365Z,-9.27
2023-01-08T04:33:27.947Z,-9.29
2023-01-08T04:36:33.333Z,-9.30
2023-01-08T04:39:41.234Z,-9.41
2023-01-08T04:42:46.318Z,-9.48
2023-01-08T04:45:52.400Z,-9.46
2023-01-08T04:48:58.932Z,-9.42
2023-01-08T04:52:05.931Z,-9.42
2023-01-08T04:55:12.419Z,-9.47
2023-01-08T04:58:18.898Z,-9.51
2023-01-08T05:01:35.379Z,-9.51
2023-01-08T05:04:35.153Z,-9.57
2023-01-08T05:07:22.575Z,-9.66
2023-01-08T05:10:17.711Z,-9.69
2023-01-08T05:13:09.223Z,-9.70
2023-01-08T05:16:01.940Z,-9.71
2023-01-08T05:19:07.110Z,-9.72
2023-01-08T05:22:16.537Z,-9.73
2023-01-08T05:25:24.462Z,-9.76
2023-01-08T05:28:31.006Z,-9.80
2023-01-08T05:31:38.384Z,-9.95
2023-01-08T05:34:44.755Z,-10.04
2023-01-08T05:37:51.295Z,-10.03
2023-01-08T05:40:59.050Z,-9.99
2023-01-08T05:44:06.165Z,-10.00
2023-01-08T05:47:14.442Z,-9.98
2023-01-08T05:50:23.151Z,-9.95
2023-01-08T05:53:29.478Z,-9.98
2023-01-08T05:56:35.878Z,-10.00
2023-01-08T05:59:43.087Z,-10.00
2023-01-08T06:02:49.485Z,-10.06
2023-01-08T06:05:56.112Z,-10.06
2023-01-08T06:09:03.140Z,-10.04
2023-01-08T06:12:09.146Z,-10.03
2023-01-08T06:15:14.736Z,-10.07
2023-01-08T06:18:20.528Z,-10.01
2023-01-08T06:21:26.700Z,-9.96
2023-01-08T06:24:32.207Z,-9.95
2023-01-08T06:27:40.698Z,-9.93
2023-01-08T06:30:48.496Z,-9.87
2023-01-08T06:33:55.421Z,-9.79
2023-01-08T06:37:01.693Z,-9.70
2023-01-08T06:40:08.640Z,-9.71
2023-01-08T06:43:18.276Z,-9.82
2023-01-08T06:46:23.648Z,-9.90
2023-01-08T06:49:31.665Z,-9.83
2023-01-08T06:52:39.567Z,-9.77
2023-01-08T06:55:45.464Z,-9.82
2023-01-08T06:58:51.104Z,-9.79
2023-01-08T07:01:59.300Z,-9.79
2023-01-08T07:05:04.113Z,-9.74
2023-01-08T07:08:11.107Z,-9.66
2023-01-08T07:11:20.475Z,-9.62
2023-01-08T07:14:26.835Z,-9.55
2023-01-08T07:17:33.907Z,-9.43
2023-01-08T07:20:39.676Z,-9.31
2023-01-08T07:23:46.424Z,-9.19
2023-01-08T07:26:52.027Z,-9.19
2023-01-08T07:29:57.806Z,-9.17
2023-01-08T07:33:03.204Z,-9.14
2023-01-08T07:36:09.187Z,-9.09
2023-01-08T07:39:15.860Z,-8.99
2023-01-08T07:42:23.052Z,-8.88
2023-01-08T07:45:32.116Z,-8.76
2023-01-08T07:48:38.568Z,-8.69
2023-01-08T07:51:45.953Z,-8.69
2023-01-08T07:54:52.522Z,-8.69
2023-01-08T07:57:58.837Z,-8.71
2023-01-08T08:01:05.487Z,-8.71
2023-01-08T08:04:10.633Z,-8.70
2023-01-08T08:07:16.743Z,-8.76
2023-01-08T08:10:21.310Z,-8.82
2023-01-08T08:13:28.174Z,-8.80
2023-01-08T08:16:35.207Z,-8.80
2023-01-08T08:19:40.892Z,-8.58
2023-01-08T08:22:46.017Z,-8.58
2023-01-08T08:25:51.019Z,-8.53
2023-01-08T08:28:57.015Z,-8.37
2023-01-08T08:32:02.486Z,-8.25
2023-01-08T08:35:09.300Z,-8.23
2023-01-08T08:38:17.436Z,-8.19
2023-01-08T08:41:23.459Z,-8.11
2023-01-08T08:44:30.806Z,-8.14
2023-01-08T08:47:37.329Z,-8.18
2023-01-08T08:50:47.527Z,-8.15
2023-01-08T08:53:54.712Z,-8.04
2023-01-08T08:57:02.303Z,-7.81
2023-01-08T09:00:08.088Z,-7.68
2023-01-08T09:03:15.584Z,-7.65
2023-01-08T09:06:27.945Z,-7.59
2023-01-08T09:09:34.458Z,-7.57
2023-01-08T09:12:40.530Z,-7.53
2023-01-08T09:15:46.807Z,-7.47
2023-01-08T09:18:55.433Z,-7.37
2023-01-08T09:22:00.407Z,-7.35
2023-01-08T09:25:06.661Z,-7.28
2023-01-08T09:28:19.831Z,-7.31
2023-01-08T09:31:26.504Z,-7.31
2023-01-08T09:34:33.164Z,-7.22
2023-01-08T09:37:39.336Z,-7.21
2023-01-08T09:40:56.004Z,-7.17
2023-01-08T09:44:06.540Z,-7.16
2023-01-08T09:47:13.039Z,-7.09
2023-01-08T09:50:20.714Z,-7.02
2023-01-08T09:53:29.593Z,-6.91
2023-01-08T09:56:34.819Z,-6.91
2023-01-08T09:59:42.603Z,-6.84
2023-01-08T10:02:51.059Z,-6.78
2023-01-08T10:05:56.080Z,-6.66
2023-01-08T10:09:01.916Z,-6.59
2023-01-08T10:12:06.786Z,-6.55
2023-01-08T10:15:21.694Z,-6.59
2023-01-08T10:18:28.555Z,-6.55
2023-01-08T10:21:36.285Z,-6.53
2023-01-08T10:24:50.098Z,-6.52
2023-01-08T10:28:14.714Z,-6.45
2023-01-08T10:31:25.441Z,-6.28
2023-01-08T10:35:11.881Z,-6.01
2023-01-08T10:38:19.277Z,-5.85
2023-01-08T10:41:26.937Z,-5.85
2023-01-08T10:44:32.964Z,-5.88
2023-01-08T10:47:39.199Z,-5.79
2023-01-08T10:50:47.020Z,-5.72
2023-01-08T10:53:52.925Z,-5.80
2023-01-08T10:57:02.299Z,-5.73
2023-01-08T11:00:06.767Z,-5.69
2023-01-08T11:03:16.085Z,-5.66
2023-01-08T11:06:30.571Z,-5.62
2023-01-08T11:09:41.300Z,-5.45
2023-01-08T11:12:55.205Z,-5.23
2023-01-08T11:16:01.668Z,-5.12
2023-01-08T11:19:09.027Z,-5.12
2023-01-08T11:22:40.241Z,-5.19
2023-01-08T11:25:46.831Z,-5.13
2023-01-08T11:29:32.135Z,-5.16
2023-01-08T11:33:22.069Z,-5.19
2023-01-08T11:36:36.996Z,-5.17
2023-01-08T11:39:43.917Z,-5.02
2023-01-08T11:43:09.103Z,-4.97
2023-01-08T11:46:33.574Z,-4.98
2023-01-08T11:49:51.206Z,-4.98
2023-01-08T11:53:42.421Z,-4.99
2023-01-08T11:57:02.352Z,-4.95
2023-01-08T12:00:15.409Z,-4.93
2023-01-08T12:03:41.724Z,-5.00
2023-01-08T12:07:13.583Z,-5.03
2023-01-08T12:10:44.888Z,-5.04
2023-01-08T12:14:07.139Z,-4.84
2023-01-08T12:17:45.825Z,-4.67
2023-01-08T12:21:06.917Z,-4.54
2023-01-08T12:24:57.863Z,-4.46
2023-01-08T12:28:32.034Z,-4.38
2023-01-08T12:32:14.641Z,-4.33
2023-01-08T12:35:43.735Z,-4.32
2023-01-08T12:39:00.802Z,-4.26
2023-01-08T12:42:07.047Z,-4.21
2023-01-08T12:45:13.966Z,-4.17
2023-01-08T12:48:35.746Z,-4.09
2023-01-08T12:51:49.520Z,-3.95
2023-01-08T12:55:33.333Z,-3.99
2023-01-08T12:59:02.943Z,-3.98
2023-01-08T13:02:50.642Z,-3.97
2023-01-08T13:05:57.112Z,-3.92
2023-01-08T13:09:08.216Z,-3.88
2023-01-08T13:12:14.797Z,-3.87
2023-01-08T13:15:21.692Z,-4.01
2023-01-08T13:18:37.217Z,-4.05
2023-01-08T13:21:55.041Z,-4.09
2023-01-08T13:25:03.095Z,-4.09
2023-01-08T13:28:10.544Z,-4.12
2023-01-08T13:31:37.040Z,-4.17
2023-01-08T13:34:53.811Z,-4.31
2023-01-08T13:38:06.856Z,-4.50
2023-01-08T13:41:12.489Z,-4.72
2023-01-08T13:44:41.768Z,-4.85
2023-01-08T13:47:49.478Z,-4.93
2023-01-08T13:50:54.730Z,-5.09
2023-01-08T13:54:03.969Z,-5.20
2023-01-08T13:57:10.555Z,-5.27
2023-01-08T14:00:15.669Z,-5.33
2023-01-08T14:03:20.381Z,-5.39
2023-01-08T14:06:35.015Z,-5.48
2023-01-08T14:09:40.897Z,-5.59
2023-01-08T14:12:45.601Z,-5.70
2023-01-08T14:15:51.608Z,-5.81
2023-01-08T14:19:00.177Z,-5.89
2023-01-08T14:22:14.331Z,-5.98
2023-01-08T14:25:21.719Z,-6.11
2023-01-08T14:28:33.609Z,-6.19
2023-01-08T14:31:40.434Z,-6.24
2023-01-08T14:34:48.002Z,-6.25
2023-01-08T14:37:55.050Z,-6.33
2023-01-08T14:41:25.281Z,-6.40
2023-01-08T14:44:38.022Z,-6.39
2023-01-08T14:47:40.213Z,-6.42
2023-01-08T14:50:56.395Z,-6.45
2023-01-08T14:54:06.109Z,-6.46
2023-01-08T14:57:12.645Z,-6.51
2023-01-08T15:00:17.449Z,-6.57
2023-01-08T15:03:47.107Z,-6.61
2023-01-08T15:06:53.770Z,-6.66
2023-01-08T15:10:01.828Z,-6.73
2023-01-08T15:13:13.282Z,-6.78
2023-01-08T15:16:27.358Z,-6.80
2023-01-08T15:19:37.192Z,-6.82
2023-01-08T15:22:44.800Z,-6.82
2023-01-08T15:25:50.340Z,-6.81
2023-01-08T15:29:06.857Z,-6.81
2023-01-08T15:32:12.498Z,-6.81
2023-01-08T15:35:33.106Z,-6.82
2023-01-08T15:38:41.389Z,-6.93
2023-01-08T15:42:09.077Z,-6.96
2023-01-08T15:45:14.796Z,-6.98
2023-01-08T15:48:21.366Z,-6.99
2023-01-08T15:51:28.339Z,-7.05
2023-01-08T15:54:35.011Z,-7.12
2023-01-08T15:57:44.781Z,-7.25
2023-01-08T16:00:49.866Z,-7.26
2023-01-08T16:03:56.888Z,-7.25
2023-01-08T16:07:06.591Z,-7.23
2023-01-08T16:10:13.273Z,-7.22
2023-01-08T16:13:19.002Z,-7.23
2023-01-08T16:16:27.319Z,-7.26
2023-01-08T16:19:36.445Z,-7.28
2023-01-08T16:22:42.658Z,-7.35
2023-01-08T16:25:49.312Z,-7.43
2023-01-08T16:28:54.391Z,-7.45
2023-01-08T16:32:02.823Z,-7.48
2023-01-08T16:35:10.019Z,-7.47
2023-01-08T16:38:17.380Z,-7.47
2023-01-08T16:41:24.482Z,-7.47
2023-01-08T16:44:35.338Z,-7.47
2023-01-08T16:47:41.498Z,-7.46
2023-01-08T16:50:48.890Z,-7.55
2023-01-08T16:53:56.146Z,-7.62
2023-01-08T16:57:01.907Z,-7.66
2023-01-08T17:00:07.199Z,-7.68
2023-01-08T17:03:13.392Z,-7.70
2023-01-08T17:06:20.622Z,-7.69
2023-01-08T17:09:26.979Z,-7.69
2023-01-08T17:12:32.977Z,-7.72
2023-01-08T17:15:40.615Z,-7.79
2023-01-08T17:18:46.236Z,-7.86
2023-01-08T17:21:54.994Z,-7.92
2023-01-08T17:24:55.231Z,-8.00
2023-01-08T17:27:45.240Z,-8.02
2023-01-08T17:30:38.132Z,-8.05
2023-01-08T17:33:23.924Z,-8.06
2023-01-08T17:36:22.537Z,-8.08
2023-01-08T17:39:10.227Z,-8.10
2023-01-08T17:42:21.198Z,-8.13
2023-01-08T17:45:27.454Z,-8.17
2023-01-08T17:48:34.277Z,-8.21
2023-01-08T17:51:40.713Z,-8.19
2023-01-08T17:54:47.047Z,-8.20
2023-01-08T17:57:54.074Z,-8.22
2023-01-08T18:01:02.132Z,-8.26
2023-01-08T18:04:07.488Z,-8.35
2023-01-08T18:07:12.513Z,-8.48
2023-01-08T18:10:20.229Z,-8.48
2023-01-08T18:13:28.011Z,-8.52
2023-01-08T18:16:33.811Z,-8.61
2023-01-08T18:19:39.999Z,-8.61
2023-01-08T18:22:47.046Z,-8.67
2023-01-08T18:25:57.421Z,-8.67
2023-01-08T18:29:04.901Z,-8.68
2023-01-08T18:32:12.305Z,-8.70
2023-01-08T18:35:21.413Z,-8.76
2023-01-08T18:38:26.853Z,-8.79
2023-01-08T18:41:58.255Z,-8.78
2023-01-08T18:45:05.714Z,-8.74
2023-01-08T18:48:11.675Z,-8.75
2023-01-08T18:51:18.750Z,-8.74
2023-01-08T18:54:26.602Z,-8.75
2023-01-08T18:57:32.511Z,-8.77
2023-01-08T19:00:40.592Z,-8.76
2023-01-08T19:03:46.958Z,-8.73
2023-01-08T19:06:52.181Z,-8.67
2023-01-08T19:09:58.106Z,-8.61
2023-01-08T19:13:03.574Z,-8.47
2023-01-08T19:16:08.373Z,-8.47
2023-01-08T19:19:13.930Z,-8.48
2023-01-08T19:22:21.712Z,-8.55
2023-01-08T19:25:28.998Z,-8.55
2023-01-08T19:28:36.182Z,-8.60
2023-01-08T19:31:42.168Z,-8.66
2023-01-08T19:34:49.062Z,-8.80
2023-01-08T19:37:56.023Z,-8.80
2023-01-08T19:41:02.881Z,-8.79
2023-01-08T19:44:12.396Z,-8.81
2023-01-08T19:47:18.895Z,-8.81
2023-01-08T19:50:26.347Z,-8.80
2023-01-08T19:53:32.285Z,-8.87
2023-01-08T19:56:38.833Z,-8.88
2023-01-08T19:59:44.964Z,-8.85
2023-01-08T20:02:49.990Z,-8.86
2023-01-08T20:05:56.782Z,-8.90
2023-01-08T20:09:09.116Z,-8.79
2023-01-08T20:12:15.277Z,-8.79
2023-01-08T20:15:24.309Z,-8.71
2023-01-08T20:18:30.769Z,-8.61
2023-01-08T20:21:36.112Z,-8.61
2023-01-08T20:24:43.704Z,-8.60
2023-01-08T20:27:48.869Z,-8.60
2023-01-08T20:30:56.181Z,-8.65
2023-01-08T20:34:02.283Z,-8.64
2023-01-08T20:37:08.276Z,-8.63
2023-01-08T20:40:13.995Z,-8.63
2023-01-08T20:43:21.062Z,-8.62
2023-01-08T20:46:26.724Z,-8.62
2023-01-08T20:49:33.937Z,-8.71
2023-01-08T20:52:43.794Z,-8.71
2023-01-08T20:55:50.551Z,-8.76
2023-01-08T20:58:59.413Z,-8.82
2023-01-08T21:02:08.379Z,-8.88
2023-01-08T21:05:15.245Z,-8.91
2023-01-08T21:08:21.308Z,-8.88
2023-01-08T21:11:29.876Z,-8.85
2023-01-08T21:14:36.000Z,-8.83
2023-01-08T21:17:41.309Z,-8.87
2023-01-08T21:20:46.871Z,-8.87
2023-01-08T21:23:52.151Z,-8.85
2023-01-08T21:27:00.308Z,-8.80
2023-01-08T21:30:08.797Z,-8.80
2023-01-08T21:33:16.149Z,-8.82
2023-01-08T21:36:25.970Z,-8.87
2023-01-08T21:39:34.951Z,-9.05
2023-01-08T21:43:00.236Z,-9.13
2023-01-08T21:46:13.513Z,-9.13
2023-01-08T21:49:18.842Z,-9.12
2023-01-08T21:52:42.483Z,-9.09
2023-01-08T21:55:49.825Z,-8.98
2023-01-08T21:58:55.836Z,-8.98
2023-01-08T22:02:03.311Z,-9.02
2023-01-08T22:05:12.974Z,-9.07
2023-01-08T22:08:21.707Z,-9.14
2023-01-08T22:11:31.074Z,-9.15
2023-01-08T22:14:37.325Z,-9.18
2023-01-08T22:17:45.058Z,-9.15
2023-01-08T22:20:51.222Z,-9.07
2023-01-08T22:23:59.142Z,-9.07
2023-01-08T22:27:05.928Z,-9.06
2023-01-08T22:30:10.872Z,-9.02
2023-01-08T22:33:16.850Z,-9.00
2023-01-08T22:36:25.595Z,-9.00
2023-01-08T22:39:31.078Z,-9.11
2023-01-08T22:42:38.936Z,-9.11
2023-01-08T22:45:44.147Z,-9.25
2023-01-08T22:48:51.182Z,-9.25
2023-01-08T22:51:57.118Z,-9.30
2023-01-08T22:55:05.354Z,-9.29
2023-01-08T22:58:11.609Z,-9.33
2023-01-08T23:01:18.517Z,-9.34
2023-01-08T23:04:25.043Z,-9.36
2023-01-08T23:07:31.144Z,-9.36
2023-01-08T23:10:38.214Z,-9.31
2023-01-08T23:13:46.184Z,-9.31
2023-01-08T23:16:51.819Z,-9.31
2023-01-08T23:19:57.845Z,-9.36
2023-01-08T23:23:04.946Z,-9.36
2023-01-08T23:26:10.905Z,-9.36
2023-01-08T23:29:17.826Z,-9.37
2023-01-08T23:32:23.824Z,-9.37
2023-01-08T23:35:33.080Z,-9.32
2023-01-08T23:38:38.895Z,-9.24
2023-01-08T23:41:45.667Z,-9.18
2023-01-08T23:44:51.784Z,-9.05
2023-01-08T23:47:58.757Z,-9.05
2023-01-08T23:51:04.034Z,-9.19
2023-01-08T23:54:10.410Z,-9.19
2023-01-08T23:57:17.266Z,-9.19
